createdAt,value
2018-10-05T00:02:07.328Z,99.90
2018-10-05T00:04:34.567Z,99.90
2018-10-05T00:07:01.874Z,99.90
2018-10-05T00:09:29.098Z,99.90
2018-10-05T00:11:56.344Z,99.90
2018-10-05T00:14:23.815Z,99.90
2018-10-05T00:16:51.077Z,99.90
2018-10-05T00:19:18.330Z,99.90
2018-10-05T00:21:45.558Z,99.90
2018-10-05T00:24:12.803Z,99.90
2018-10-05T00:26:40.044Z,99.90
2018-10-05T00:29:07.304Z,99.90
2018-10-05T00:31:34.519Z,99.90
2018-10-05T00:34:01.790Z,99.90
2018-10-05T00:36:29.043Z,99.90
2018-10-05T00:38:56.309Z,99.90
2018-10-05T00:41:23.589Z,99.90
2018-10-05T00:43:50.849Z,99.90
2018-10-05T00:46:18.064Z,99.90
2018-10-05T00:48:45.294Z,99.90
2018-10-05T00:51:12.537Z,99.90
2018-10-05T00:53:39.788Z,99.90
2018-10-05T00:56:07.085Z,99.90
2018-10-05T00:58:34.340Z,99.90
2018-10-05T01:01:01.607Z,99.90
2018-10-05T01:03:28.903Z,99.90
2018-10-05T01:05:56.132Z,99.90
2018-10-05T01:08:23.383Z,99.90
2018-10-05T01:10:50.656Z,99.90
2018-10-05T01:13:17.879Z,99.90
2018-10-05T01:15:45.103Z,99.90
2018-10-05T01:18:12.377Z,99.90
2018-10-05T01:20:39.628Z,99.90
2018-10-05T01:23:06.867Z,99.90
2018-10-05T01:25:34.123Z,99.90
2018-10-05T01:28:01.375Z,99.90
2018-10-05T01:30:28.612Z,99.90
2018-10-05T01:32:55.863Z,99.90
2018-10-05T01:35:23.126Z,99.90
2018-10-05T01:37:50.396Z,99.90
2018-10-05T01:40:17.635Z,99.90
2018-10-05T01:42:44.844Z,99.90
2018-10-05T01:45:12.080Z,99.90
2018-10-05T01:47:39.328Z,99.90
2018-10-05T01:50:06.611Z,99.90
2018-10-05T01:52:33.877Z,99.90
2018-10-05T01:55:01.104Z,99.90
2018-10-05T01:57:28.393Z,99.90
2018-10-05T01:59:55.643Z,99.90
2018-10-05T02:02:22.893Z,99.90
2018-10-05T02:04:50.118Z,99.90
2018-10-05T02:07:17.350Z,99.90
2018-10-05T02:09:44.651Z,99.90
2018-10-05T02:12:11.888Z,99.90
2018-10-05T02:14:39.136Z,99.90
2018-10-05T02:17:06.375Z,99.90
2018-10-05T02:19:33.601Z,99.90
2018-10-05T02:22:00.888Z,99.90
2018-10-05T02:24:28.108Z,99.90
2018-10-05T02:26:55.335Z,99.90
2018-10-05T02:29:22.570Z,99.90
2018-10-05T02:31:49.769Z,99.90
2018-10-05T02:34:16.979Z,99.90
2018-10-05T02:36:44.240Z,99.90
2018-10-05T02:39:12.389Z,99.90
2018-10-05T02:41:39.695Z,99.90
2018-10-05T02:44:06.908Z,99.90
2018-10-05T02:46:34.144Z,99.90
2018-10-05T02:49:01.430Z,99.90
2018-10-05T02:51:28.700Z,99.90
2018-10-05T02:53:55.953Z,99.90
2018-10-05T02:56:23.227Z,99.90
2018-10-05T02:58:50.455Z,99.90
2018-10-05T03:01:29.133Z,99.90
2018-10-05T03:03:56.367Z,99.90
2018-10-05T03:06:24.605Z,99.90
2018-10-05T03:08:51.852Z,99.90
2018-10-05T03:11:19.104Z,99.90
2018-10-05T03:13:46.364Z,99.90
2018-10-05T03:16:13.590Z,99.90
2018-10-05T03:18:40.794Z,99.90
2018-10-05T03:21:08.043Z,99.90
2018-10-05T03:23:35.329Z,99.90
2018-10-05T03:26:02.577Z,99.90
2018-10-05T03:28:29.852Z,99.90
2018-10-05T03:30:57.104Z,99.90
2018-10-05T03:33:24.356Z,99.90
2018-10-05T03:35:51.590Z,99.90
2018-10-05T03:38:18.805Z,99.90
2018-10-05T03:40:46.038Z,99.90
2018-10-05T03:43:13.280Z,99.90
2018-10-05T03:45:40.524Z,99.90
2018-10-05T03:48:07.819Z,99.90
2018-10-05T03:50:35.075Z,99.90
2018-10-05T03:53:02.632Z,99.90
2018-10-05T03:55:29.856Z,99.90
2018-10-05T03:57:57.083Z,99.90
2018-10-05T04:00:24.296Z,99.90
2018-10-05T04:02:51.544Z,99.90
2018-10-05T04:05:18.772Z,99.90
2018-10-05T04:07:46.047Z,99.90
2018-10-05T04:10:13.259Z,99.90
2018-10-05T04:12:41.541Z,99.90
2018-10-05T04:15:08.848Z,99.90
2018-10-05T04:17:36.067Z,99.90
2018-10-05T04:20:03.346Z,99.90
2018-10-05T04:22:31.161Z,99.90
2018-10-05T04:24:58.465Z,99.90
2018-10-05T04:27:26.699Z,99.90
2018-10-05T04:29:54.551Z,99.90
2018-10-05T04:32:21.788Z,99.90
2018-10-05T04:34:49.003Z,99.90
2018-10-05T04:37:16.223Z,99.90
2018-10-05T04:39:43.633Z,99.90
2018-10-05T04:42:11.191Z,99.90
2018-10-05T04:44:38.449Z,99.90
2018-10-05T04:47:05.715Z,99.90
2018-10-05T04:49:33.100Z,99.90
2018-10-05T04:52:00.678Z,99.90
2018-10-05T04:54:27.891Z,99.90
2018-10-05T04:56:55.186Z,99.90
2018-10-05T04:59:22.382Z,99.90
2018-10-05T05:01:49.632Z,99.90
2018-10-05T05:04:16.874Z,99.90
2018-10-05T05:06:44.113Z,99.90
2018-10-05T05:09:11.352Z,99.90
2018-10-05T05:11:38.607Z,99.90
2018-10-05T05:14:05.883Z,99.90
2018-10-05T05:16:33.144Z,99.90
2018-10-05T05:19:00.386Z,99.90
2018-10-05T05:21:27.630Z,99.90
2018-10-05T05:23:55.355Z,99.90
2018-10-05T05:26:22.592Z,99.90
2018-10-05T05:28:50.151Z,99.90
2018-10-05T05:31:17.382Z,99.90
2018-10-05T05:33:44.642Z,99.90
2018-10-05T05:36:11.899Z,99.90
2018-10-05T05:38:39.133Z,99.90
2018-10-05T05:41:06.395Z,99.90
2018-10-05T05:43:33.632Z,99.90
2018-10-05T05:46:00.840Z,99.90
2018-10-05T05:48:28.210Z,99.90
2018-10-05T05:50:55.428Z,99.90
2018-10-05T05:53:22.648Z,99.90
2018-10-05T05:55:49.868Z,99.90
2018-10-05T05:58:17.099Z,99.90
2018-10-05T06:00:44.343Z,99.90
2018-10-05T06:03:11.611Z,99.90
2018-10-05T06:05:38.869Z,99.90
2018-10-05T06:08:06.099Z,99.90
2018-10-05T06:10:33.323Z,99.90
2018-10-05T06:13:00.582Z,99.90
2018-10-05T06:15:27.823Z,99.90
2018-10-05T06:17:55.047Z,99.90
2018-10-05T06:20:22.280Z,99.90
2018-10-05T06:22:49.507Z,99.90
2018-10-05T06:25:16.780Z,99.90
2018-10-05T06:27:44.003Z,99.90
2018-10-05T06:30:11.260Z,99.90
2018-10-05T06:32:38.496Z,99.90
2018-10-05T06:35:05.743Z,99.90
2018-10-05T06:37:32.975Z,99.90
2018-10-05T06:40:00.168Z,99.90
2018-10-05T06:42:28.112Z,99.90
2018-10-05T06:44:55.316Z,99.90
2018-10-05T06:47:22.584Z,99.90
2018-10-05T06:49:49.799Z,99.90
2018-10-05T06:52:17.031Z,99.90
2018-10-05T06:54:44.279Z,99.90
2018-10-05T06:57:11.554Z,99.90
2018-10-05T06:59:38.914Z,99.90
2018-10-05T07:02:06.163Z,99.90
2018-10-05T07:04:33.378Z,99.90
2018-10-05T07:07:00.611Z,99.90
2018-10-05T07:09:27.867Z,99.90
2018-10-05T07:11:55.127Z,99.90
2018-10-05T07:14:22.365Z,99.90
2018-10-05T07:16:49.598Z,99.90
2018-10-05T07:19:16.862Z,99.90
2018-10-05T07:21:44.084Z,99.90
2018-10-05T07:24:11.635Z,99.90
2018-10-05T07:26:38.975Z,99.90
2018-10-05T07:29:06.254Z,99.90
2018-10-05T07:31:33.476Z,99.90
2018-10-05T07:34:00.723Z,99.90
2018-10-05T07:36:27.947Z,99.90
2018-10-05T07:38:55.174Z,99.90
2018-10-05T07:41:22.438Z,99.90
2018-10-05T07:43:49.675Z,99.90
2018-10-05T07:46:16.937Z,99.90
2018-10-05T07:48:44.163Z,99.90
2018-10-05T07:51:11.387Z,99.90
2018-10-05T07:53:38.652Z,99.90
2018-10-05T07:56:06.270Z,99.90
2018-10-05T07:58:33.539Z,99.90
2018-10-05T08:01:00.774Z,99.90
2018-10-05T08:03:28.011Z,99.90
2018-10-05T08:05:55.261Z,99.90
2018-10-05T08:08:22.480Z,99.90
2018-10-05T08:10:49.767Z,99.90
2018-10-05T08:13:16.986Z,99.90
2018-10-05T08:15:44.732Z,99.90
2018-10-05T08:18:11.971Z,99.90
2018-10-05T08:20:39.199Z,99.90
2018-10-05T08:23:06.494Z,99.90
2018-10-05T08:25:33.735Z,99.90
2018-10-05T08:28:01.056Z,99.90
2018-10-05T08:30:28.227Z,99.90
2018-10-05T08:32:55.439Z,99.90
2018-10-05T08:35:22.664Z,99.90
2018-10-05T08:37:49.866Z,99.90
2018-10-05T08:40:17.101Z,99.90
2018-10-05T08:42:44.286Z,99.90
2018-10-05T08:45:11.611Z,99.90
2018-10-05T08:47:38.847Z,99.90
2018-10-05T08:50:06.105Z,99.90
2018-10-05T08:52:33.413Z,99.90
2018-10-05T08:55:00.762Z,99.90
2018-10-05T08:57:27.999Z,99.90
2018-10-05T08:59:55.268Z,99.90
2018-10-05T09:02:22.594Z,99.90
2018-10-05T09:04:50.470Z,99.90
2018-10-05T09:07:17.725Z,99.90
2018-10-05T09:09:44.968Z,99.90
2018-10-05T09:12:12.193Z,99.90
2018-10-05T09:14:39.496Z,99.90
2018-10-05T09:17:07.582Z,99.90
2018-10-05T09:19:35.259Z,99.90
2018-10-05T09:22:02.480Z,99.90
2018-10-05T09:24:30.482Z,99.90
2018-10-05T09:26:57.719Z,99.90
2018-10-05T09:29:24.952Z,99.90
2018-10-05T09:31:52.186Z,99.90
2018-10-05T09:34:19.452Z,99.90
2018-10-05T09:36:46.691Z,99.90
2018-10-05T09:39:13.922Z,99.90
2018-10-05T09:41:41.192Z,99.90
2018-10-05T09:44:08.418Z,99.90
2018-10-05T09:46:35.651Z,99.90
2018-10-05T09:49:02.904Z,99.90
2018-10-05T09:51:30.159Z,99.90
2018-10-05T09:53:57.400Z,99.90
2018-10-05T09:56:24.648Z,99.90
2018-10-05T09:58:51.908Z,99.90
2018-10-05T10:01:25.996Z,99.90
2018-10-05T10:03:53.219Z,99.90
2018-10-05T10:06:20.444Z,99.90
2018-10-05T10:08:47.697Z,99.90
2018-10-05T10:11:14.935Z,99.90
2018-10-05T10:13:42.251Z,99.90
2018-10-05T10:16:09.510Z,99.90
2018-10-05T10:18:36.856Z,99.90
2018-10-05T10:21:04.134Z,99.90
2018-10-05T10:23:31.376Z,99.90
2018-10-05T10:25:58.627Z,99.90
2018-10-05T10:28:25.947Z,99.90
2018-10-05T10:30:53.115Z,99.90
2018-10-05T10:33:20.420Z,99.90
2018-10-05T10:35:47.913Z,99.90
2018-10-05T10:38:15.119Z,99.90
2018-10-05T10:40:42.338Z,99.90
2018-10-05T10:43:09.551Z,99.90
2018-10-05T10:45:36.803Z,99.90
2018-10-05T10:48:04.037Z,99.90
2018-10-05T10:50:31.239Z,99.90
2018-10-05T10:52:58.469Z,99.90
2018-10-05T10:55:25.656Z,99.90
2018-10-05T10:57:52.879Z,99.90
2018-10-05T11:00:20.116Z,99.90
2018-10-05T11:02:47.383Z,99.90
2018-10-05T11:05:15.488Z,99.90
2018-10-05T11:07:42.698Z,99.90
2018-10-05T11:10:09.923Z,99.90
2018-10-05T11:12:37.123Z,99.90
2018-10-05T11:15:04.384Z,99.90
2018-10-05T11:17:31.591Z,99.90
2018-10-05T11:19:58.821Z,99.90
2018-10-05T11:22:26.036Z,99.90
2018-10-05T11:24:53.261Z,99.90
2018-10-05T11:27:20.458Z,99.90
2018-10-05T11:29:49.194Z,99.90
2018-10-05T11:32:16.379Z,99.90
2018-10-05T11:34:43.619Z,99.90
2018-10-05T11:37:11.888Z,99.90
2018-10-05T11:39:39.122Z,99.90
2018-10-05T11:42:06.397Z,99.90
2018-10-05T11:44:33.611Z,99.90
2018-10-05T11:47:00.859Z,99.90
2018-10-05T11:49:28.091Z,99.90
2018-10-05T11:51:55.321Z,99.90
2018-10-05T11:54:22.536Z,99.90
2018-10-05T11:56:49.752Z,99.90
2018-10-05T11:59:17.160Z,99.90
2018-10-05T12:01:44.372Z,99.90
2018-10-05T12:04:11.591Z,99.90
2018-10-05T12:06:38.815Z,99.90
2018-10-05T12:09:07.075Z,99.90
2018-10-05T12:11:34.372Z,99.90
2018-10-05T12:14:01.654Z,99.90
2018-10-05T12:16:28.880Z,99.90
2018-10-05T12:18:56.112Z,99.90
2018-10-05T12:21:23.338Z,99.90
2018-10-05T12:23:51.074Z,99.90
2018-10-05T12:26:18.305Z,99.90
2018-10-05T12:28:46.060Z,99.90
2018-10-05T12:31:13.295Z,99.90
2018-10-05T12:33:40.543Z,98.80
2018-10-05T12:36:07.791Z,99.70
2018-10-05T12:38:35.013Z,97.50
2018-10-05T12:41:02.258Z,93.50
2018-10-05T12:43:29.515Z,91.10
2018-10-05T12:45:56.716Z,90.30
2018-10-05T12:48:23.940Z,87.90
2018-10-05T12:50:51.168Z,87.00
2018-10-05T12:53:18.391Z,87.10
2018-10-05T12:55:46.670Z,82.50
2018-10-05T12:58:13.924Z,81.20
2018-10-05T13:00:41.145Z,79.80
2018-10-05T13:03:08.351Z,79.70
2018-10-05T13:05:35.571Z,78.20
2018-10-05T13:08:02.791Z,74.60
2018-10-05T13:10:30.011Z,77.00
2018-10-05T13:12:57.274Z,74.90
2018-10-05T13:15:24.527Z,72.80
2018-10-05T13:17:51.779Z,73.10
2018-10-05T13:20:19.012Z,71.70
2018-10-05T13:22:46.227Z,72.20
2018-10-05T13:25:13.440Z,72.70
2018-10-05T13:27:40.646Z,73.40
2018-10-05T13:30:08.407Z,70.00
2018-10-05T13:32:35.635Z,68.80
2018-10-05T13:35:02.929Z,69.10
2018-10-05T13:37:30.294Z,68.20
2018-10-05T13:39:57.429Z,69.30
2018-10-05T13:42:25.675Z,70.40
2018-10-05T13:44:52.895Z,69.10
2018-10-05T13:47:20.144Z,68.80
2018-10-05T13:49:47.362Z,66.20
2018-10-05T13:52:14.585Z,67.30
2018-10-05T13:54:41.790Z,66.40
2018-10-05T13:57:08.998Z,65.60
2018-10-05T13:59:36.219Z,64.20
2018-10-05T14:02:04.175Z,65.10
2018-10-05T14:04:31.405Z,63.20
2018-10-05T14:06:59.004Z,65.00
2018-10-05T14:09:26.155Z,61.00
2018-10-05T14:11:54.465Z,62.30
2018-10-05T14:14:21.683Z,62.60
2018-10-05T14:16:48.924Z,62.20
2018-10-05T14:19:16.181Z,62.20
2018-10-05T14:21:43.436Z,63.20
2018-10-05T14:24:10.608Z,62.10
2018-10-05T14:26:37.840Z,62.40
2018-10-05T14:29:06.115Z,62.00
2018-10-05T14:31:33.345Z,62.70
2018-10-05T14:34:00.592Z,63.60
2018-10-05T14:36:27.825Z,62.00
2018-10-05T14:38:55.067Z,61.60
2018-10-05T14:41:22.291Z,60.10
2018-10-05T14:43:49.491Z,60.70
2018-10-05T14:46:16.827Z,61.00
2018-10-05T14:48:44.074Z,59.70
2018-10-05T14:51:11.313Z,61.30
2018-10-05T14:53:38.619Z,59.30
2018-10-05T14:56:05.856Z,61.30
2018-10-05T14:58:33.081Z,59.60
2018-10-05T15:01:01.323Z,60.60
2018-10-05T15:03:28.547Z,62.40
2018-10-05T15:05:55.838Z,61.30
2018-10-05T15:08:23.064Z,61.10
2018-10-05T15:10:50.295Z,61.50
2018-10-05T15:13:17.523Z,62.70
2018-10-05T15:15:44.760Z,62.20
2018-10-05T15:18:11.972Z,62.90
2018-10-05T15:20:39.187Z,62.80
2018-10-05T15:23:07.411Z,63.10
2018-10-05T15:25:34.628Z,62.30
2018-10-05T15:28:01.835Z,62.60
2018-10-05T15:30:29.030Z,62.80
2018-10-05T15:32:56.388Z,63.20
2018-10-05T15:35:23.527Z,63.50
2018-10-05T15:37:51.752Z,62.20
2018-10-05T15:40:19.002Z,62.50
2018-10-05T15:42:46.218Z,63.60
2018-10-05T15:45:13.476Z,63.80
2018-10-05T15:47:41.708Z,63.50
2018-10-05T15:50:08.923Z,64.60
2018-10-05T15:52:36.151Z,64.90
2018-10-05T15:55:03.489Z,64.70
2018-10-05T15:57:30.703Z,64.30
2018-10-05T15:59:58.935Z,63.70
2018-10-05T16:02:26.143Z,62.90
2018-10-05T16:04:53.359Z,62.90
2018-10-05T16:07:20.589Z,63.10
2018-10-05T16:09:47.816Z,64.30
2018-10-05T16:12:15.059Z,65.30
2018-10-05T16:14:42.247Z,67.60
2018-10-05T16:17:09.468Z,69.70
2018-10-05T16:19:36.692Z,72.70
2018-10-05T16:22:03.990Z,74.50
2018-10-05T16:24:35.251Z,75.40
2018-10-05T16:27:02.480Z,77.00
2018-10-05T16:29:29.685Z,79.00
2018-10-05T16:31:56.942Z,80.40
2018-10-05T16:34:24.130Z,82.00
2018-10-05T16:36:51.654Z,84.30
2018-10-05T16:39:18.857Z,86.60
2018-10-05T16:41:46.083Z,89.00
2018-10-05T16:44:14.346Z,90.60
2018-10-05T16:46:41.580Z,92.90
2018-10-05T16:49:10.645Z,97.00
2018-10-05T16:51:38.334Z,99.90
2018-10-05T16:54:05.684Z,99.90
2018-10-05T16:56:32.903Z,99.90
2018-10-05T16:59:00.262Z,99.90
2018-10-05T17:01:27.479Z,99.90
2018-10-05T17:03:54.780Z,99.90
2018-10-05T17:06:21.952Z,99.90
2018-10-05T17:08:51.254Z,99.90
2018-10-05T17:11:19.167Z,99.90
2018-10-05T17:13:46.377Z,99.90
2018-10-05T17:16:14.590Z,99.90
2018-10-05T17:18:41.787Z,99.90
2018-10-05T17:21:09.060Z,99.90
2018-10-05T17:23:36.303Z,99.90
2018-10-05T17:26:03.633Z,99.90
2018-10-05T17:28:30.898Z,99.90
2018-10-05T17:30:58.130Z,99.90
2018-10-05T17:33:25.432Z,99.90
2018-10-05T17:35:52.676Z,99.90
2018-10-05T17:38:19.923Z,99.90
2018-10-05T17:40:47.167Z,99.90
2018-10-05T17:43:14.436Z,99.90
2018-10-05T17:45:41.801Z,99.90
2018-10-05T17:48:09.035Z,99.90
2018-10-05T17:50:36.379Z,99.90
2018-10-05T17:53:03.743Z,99.90
2018-10-05T17:55:31.184Z,99.90
2018-10-05T17:57:58.363Z,99.90
2018-10-05T18:00:26.380Z,99.90
2018-10-05T18:02:53.691Z,99.90
2018-10-05T18:05:21.260Z,99.90
2018-10-05T18:07:48.547Z,99.90
2018-10-05T18:10:15.820Z,99.90
2018-10-05T18:12:43.124Z,99.90
2018-10-05T18:15:10.577Z,99.90
2018-10-05T18:17:37.940Z,99.90
2018-10-05T18:20:05.407Z,99.90
2018-10-05T18:22:32.685Z,99.90
2018-10-05T18:24:59.950Z,99.90
2018-10-05T18:27:27.261Z,99.90
2018-10-05T18:29:54.635Z,99.90
2018-10-05T18:32:21.979Z,99.90
2018-10-05T18:34:49.295Z,99.90
2018-10-05T18:37:16.614Z,99.90
2018-10-05T18:39:43.910Z,99.90
2018-10-05T18:42:12.019Z,99.90
2018-10-05T18:44:39.259Z,99.90
2018-10-05T18:47:06.708Z,99.90
2018-10-05T18:49:33.983Z,99.90
2018-10-05T18:52:01.259Z,99.90
2018-10-05T18:54:28.582Z,99.90
2018-10-05T18:57:07.507Z,99.90
2018-10-05T18:59:34.809Z,99.90
2018-10-05T19:02:02.074Z,99.90
2018-10-05T19:04:29.320Z,99.90
2018-10-05T19:06:56.605Z,99.90
2018-10-05T19:09:23.843Z,99.90
2018-10-05T19:11:51.143Z,99.90
2018-10-05T19:14:18.371Z,99.90
2018-10-05T19:16:45.614Z,99.90
2018-10-05T19:19:12.890Z,99.90
2018-10-05T19:21:40.159Z,99.90
2018-10-05T19:24:07.397Z,99.90
2018-10-05T19:26:34.855Z,99.90
2018-10-05T19:29:02.219Z,99.90
2018-10-05T19:31:29.444Z,99.90
2018-10-05T19:33:56.731Z,99.90
2018-10-05T19:36:23.973Z,99.90
2018-10-05T19:38:51.213Z,99.90
2018-10-05T19:41:18.452Z,99.90
2018-10-05T19:43:49.261Z,99.90
2018-10-05T19:46:21.522Z,99.90
2018-10-05T19:48:49.826Z,99.90
2018-10-05T19:51:18.694Z,99.90
2018-10-05T19:53:47.619Z,99.90
2018-10-05T19:56:16.531Z,99.90
2018-10-05T19:58:45.045Z,99.90
2018-10-05T20:01:14.180Z,99.90
2018-10-05T20:03:42.784Z,99.90
2018-10-05T20:06:11.132Z,99.90
2018-10-05T20:08:39.665Z,99.90
2018-10-05T20:11:08.422Z,99.90
2018-10-05T20:13:35.764Z,99.90
2018-10-05T20:16:03.048Z,99.90
2018-10-05T20:18:30.339Z,99.90
2018-10-05T20:20:57.562Z,99.90
2018-10-05T20:23:25.911Z,99.90
2018-10-05T20:25:53.246Z,99.90
2018-10-05T20:28:20.470Z,99.90
2018-10-05T20:30:47.735Z,99.90
2018-10-05T20:33:15.006Z,99.90
2018-10-05T20:35:42.263Z,99.90
2018-10-05T20:38:09.670Z,99.90
2018-10-05T20:40:36.899Z,99.90
2018-10-05T20:43:04.131Z,99.90
2018-10-05T20:45:31.399Z,99.90
2018-10-05T20:47:58.780Z,99.90
2018-10-05T20:50:26.024Z,99.90
2018-10-05T20:52:53.675Z,99.90
2018-10-05T20:55:21.539Z,99.90
2018-10-05T20:57:48.788Z,99.90
2018-10-05T21:00:16.026Z,99.90
2018-10-05T21:02:43.271Z,99.90
2018-10-05T21:05:10.511Z,99.90
2018-10-05T21:07:37.762Z,99.90
2018-10-05T21:10:05.007Z,99.90
2018-10-05T21:12:32.213Z,99.90
2018-10-05T21:14:59.492Z,99.90
2018-10-05T21:17:26.739Z,99.90
2018-10-05T21:19:53.984Z,99.90
2018-10-05T21:22:21.260Z,99.90
2018-10-05T21:24:48.508Z,99.90
2018-10-05T21:27:15.720Z,99.90
2018-10-05T21:29:43.023Z,99.90
2018-10-05T21:32:10.275Z,99.90
2018-10-05T21:34:37.523Z,99.90
2018-10-05T21:37:04.767Z,99.90
2018-10-05T21:39:31.983Z,99.90
2018-10-05T21:41:59.206Z,99.90
2018-10-05T21:44:26.440Z,99.90
2018-10-05T21:46:53.678Z,99.90
2018-10-05T21:49:20.902Z,99.90
2018-10-05T21:51:48.131Z,99.90
2018-10-05T21:54:15.367Z,99.90
2018-10-05T21:56:42.573Z,99.90
2018-10-05T21:59:09.760Z,99.90
2018-10-05T22:01:37.000Z,99.90
2018-10-05T22:04:04.244Z,99.90
2018-10-05T22:06:31.504Z,99.90
2018-10-05T22:08:58.773Z,99.90
2018-10-05T22:11:26.014Z,99.90
2018-10-05T22:13:53.265Z,99.90
2018-10-05T22:16:20.480Z,99.90
2018-10-05T22:18:47.735Z,99.90
2018-10-05T22:21:14.964Z,99.90
2018-10-05T22:23:42.203Z,99.90
2018-10-05T22:26:09.459Z,99.90
2018-10-05T22:28:36.673Z,99.90
2018-10-05T22:31:03.934Z,99.90
2018-10-05T22:33:31.228Z,99.90
2018-10-05T22:35:58.512Z,99.90
2018-10-05T22:38:25.838Z,99.90
2018-10-05T22:40:53.119Z,99.90
2018-10-05T22:43:20.347Z,99.90
2018-10-05T22:45:47.602Z,99.90
2018-10-05T22:48:14.824Z,99.90
2018-10-05T22:50:42.083Z,99.90
2018-10-05T22:53:09.367Z,99.90
2018-10-05T22:55:36.634Z,99.90
2018-10-05T22:58:03.870Z,99.90
2018-10-05T23:00:31.192Z,99.90
2018-10-05T23:02:58.436Z,99.90
2018-10-05T23:05:25.683Z,99.90
2018-10-05T23:07:52.895Z,99.90
2018-10-05T23:10:20.160Z,99.90
2018-10-05T23:12:47.435Z,99.90
2018-10-05T23:15:14.663Z,99.90
2018-10-05T23:17:41.895Z,99.90
2018-10-05T23:20:09.139Z,99.90
2018-10-05T23:22:36.466Z,99.90
2018-10-05T23:25:03.919Z,99.90
2018-10-05T23:27:31.159Z,99.90
2018-10-05T23:29:58.424Z,99.90
2018-10-05T23:32:25.695Z,99.90
2018-10-05T23:34:52.927Z,99.90
2018-10-05T23:37:20.157Z,99.90
2018-10-05T23:39:47.395Z,99.90
2018-10-05T23:42:14.647Z,99.90
2018-10-05T23:44:41.886Z,99.90
2018-10-05T23:47:09.115Z,99.90
2018-10-05T23:49:36.360Z,99.90
2018-10-05T23:52:13.847Z,99.90
2018-10-05T23:54:41.101Z,99.90
2018-10-05T23:57:08.343Z,99.90
2018-10-05T23:59:35.580Z,99.90
